sensor_id;sensor_type;location;lat;lon;timestamp;P1;durP1;ratioP1;P2;durP2;ratioP2
34924;SDS011;21130;51.728;8.748;2023-05-14T00:01:50;8.35;;;7.63;;
34924;SDS011;21130;51.728;8.748;2023-05-14T00:04:16;9.02;;;8.23;;
34924;SDS011;21130;51.728;8.748;2023-05-14T00:06:43;8.40;;;7.60;;
34924;SDS011;21130;51.728;8.748;2023-05-14T00:09:10;9.27;;;8.38;;
34924;SDS011;21130;51.728;8.748;2023-05-14T00:11:37;8.48;;;7.68;;
34924;SDS011;21130;51.728;8.748;2023-05-14T00:14:03;8.70;;;7.90;;
34924;SDS011;21130;51.728;8.748;2023-05-14T00:16:31;9.00;;;8.20;;
34924;SDS011;21130;51.728;8.748;2023-05-14T00:18:58;10.88;;;8.45;;
34924;SDS011;21130;51.728;8.748;2023-05-14T00:21:24;9.15;;;8.25;;
34924;SDS011;21130;51.728;8.748;2023-05-14T00:23:50;9.25;;;8.38;;
34924;SDS011;21130;51.728;8.748;2023-05-14T00:26:17;9.40;;;8.55;;
34924;SDS011;21130;51.728;8.748;2023-05-14T00:28:44;11.15;;;9.02;;
34924;SDS011;21130;51.728;8.748;2023-05-14T00:31:11;9.90;;;9.00;;
34924;SDS011;21130;51.728;8.748;2023-05-14T00:33:38;9.63;;;8.65;;
34924;SDS011;21130;51.728;8.748;2023-05-14T00:36:06;9.98;;;8.98;;
34924;SDS011;21130;51.728;8.748;2023-05-14T00:38:33;10.00;;;8.93;;
34924;SDS011;21130;51.728;8.748;2023-05-14T00:40:59;9.75;;;8.85;;
34924;SDS011;21130;51.728;8.748;2023-05-14T00:43:26;10.02;;;9.02;;
34924;SDS011;21130;51.728;8.748;2023-05-14T00:45:53;10.38;;;9.43;;
34924;SDS011;21130;51.728;8.748;2023-05-14T00:48:20;10.48;;;9.48;;
34924;SDS011;21130;51.728;8.748;2023-05-14T00:50:50;10.23;;;9.32;;
34924;SDS011;21130;51.728;8.748;2023-05-14T00:53:17;10.65;;;9.65;;
34924;SDS011;21130;51.728;8.748;2023-05-14T00:55:44;10.35;;;9.35;;
34924;SDS011;21130;51.728;8.748;2023-05-14T00:58:12;9.73;;;8.82;;
34924;SDS011;21130;51.728;8.748;2023-05-14T01:00:39;10.85;;;9.68;;
34924;SDS011;21130;51.728;8.748;2023-05-14T01:03:07;10.48;;;9.57;;
34924;SDS011;21130;51.728;8.748;2023-05-14T01:05:35;10.88;;;9.73;;
34924;SDS011;21130;51.728;8.748;2023-05-14T01:08:08;11.07;;;10.18;;
34924;SDS011;21130;51.728;8.748;2023-05-14T01:10:44;10.77;;;9.88;;
34924;SDS011;21130;51.728;8.748;2023-05-14T01:13:17;11.65;;;10.45;;
34924;SDS011;21130;51.728;8.748;2023-05-14T01:15:49;12.40;;;11.07;;
34924;SDS011;21130;51.728;8.748;2023-05-14T01:18:16;11.45;;;10.00;;
34924;SDS011;21130;51.728;8.748;2023-05-14T01:20:44;11.48;;;10.27;;
34924;SDS011;21130;51.728;8.748;2023-05-14T01:23:12;11.25;;;10.15;;
34924;SDS011;21130;51.728;8.748;2023-05-14T01:25:38;11.10;;;9.98;;
34924;SDS011;21130;51.728;8.748;2023-05-14T01:28:05;11.70;;;10.20;;
34924;SDS011;21130;51.728;8.748;2023-05-14T01:30:39;10.60;;;9.32;;
34924;SDS011;21130;51.728;8.748;2023-05-14T01:33:12;10.98;;;9.85;;
34924;SDS011;21130;51.728;8.748;2023-05-14T01:35:42;10.93;;;9.88;;
34924;SDS011;21130;51.728;8.748;2023-05-14T01:38:10;10.35;;;9.45;;
34924;SDS011;21130;51.728;8.748;2023-05-14T01:40:39;10.65;;;9.65;;
34924;SDS011;21130;51.728;8.748;2023-05-14T01:43:07;10.00;;;9.15;;
34924;SDS011;21130;51.728;8.748;2023-05-14T01:45:33;10.13;;;9.18;;
34924;SDS011;21130;51.728;8.748;2023-05-14T01:48:01;11.82;;;10.45;;
34924;SDS011;21130;51.728;8.748;2023-05-14T01:50:28;11.90;;;10.80;;
34924;SDS011;21130;51.728;8.748;2023-05-14T01:52:55;12.57;;;11.38;;
34924;SDS011;21130;51.728;8.748;2023-05-14T01:55:23;11.98;;;10.88;;
34924;SDS011;21130;51.728;8.748;2023-05-14T01:57:50;11.80;;;10.70;;
34924;SDS011;21130;51.728;8.748;2023-05-14T02:00:17;10.95;;;9.90;;
34924;SDS011;21130;51.728;8.748;2023-05-14T02:02:43;12.43;;;11.18;;
34924;SDS011;21130;51.728;8.748;2023-05-14T02:05:10;12.27;;;11.18;;
34924;SDS011;21130;51.728;8.748;2023-05-14T02:07:37;12.00;;;10.57;;
34924;SDS011;21130;51.728;8.748;2023-05-14T02:10:24;12.55;;;11.27;;
34924;SDS011;21130;51.728;8.748;2023-05-14T02:13:09;11.95;;;10.85;;
34924;SDS011;21130;51.728;8.748;2023-05-14T02:15:36;12.43;;;11.30;;
34924;SDS011;21130;51.728;8.748;2023-05-14T02:18:03;11.50;;;10.50;;
34924;SDS011;21130;51.728;8.748;2023-05-14T02:20:29;13.45;;;11.35;;
34924;SDS011;21130;51.728;8.748;2023-05-14T02:22:56;12.20;;;11.10;;
34924;SDS011;21130;51.728;8.748;2023-05-14T02:25:23;12.48;;;11.27;;
34924;SDS011;21130;51.728;8.748;2023-05-14T02:27:50;12.32;;;11.02;;
34924;SDS011;21130;51.728;8.748;2023-05-14T02:30:16;11.65;;;10.65;;
34924;SDS011;21130;51.728;8.748;2023-05-14T02:32:43;12.68;;;11.48;;
34924;SDS011;21130;51.728;8.748;2023-05-14T02:35:09;12.00;;;10.90;;
34924;SDS011;21130;51.728;8.748;2023-05-14T02:37:55;11.75;;;10.65;;
34924;SDS011;21130;51.728;8.748;2023-05-14T02:40:45;11.68;;;10.57;;
34924;SDS011;21130;51.728;8.748;2023-05-14T02:43:11;12.63;;;11.43;;
34924;SDS011;21130;51.728;8.748;2023-05-14T02:45:37;12.20;;;11.10;;
34924;SDS011;21130;51.728;8.748;2023-05-14T02:48:04;12.60;;;11.40;;
34924;SDS011;21130;51.728;8.748;2023-05-14T02:50:31;12.80;;;11.48;;
34924;SDS011;21130;51.728;8.748;2023-05-14T02:52:57;13.18;;;11.85;;
34924;SDS011;21130;51.728;8.748;2023-05-14T02:55:24;12.95;;;11.73;;
34924;SDS011;21130;51.728;8.748;2023-05-14T02:57:52;16.30;;;12.80;;
34924;SDS011;21130;51.728;8.748;2023-05-14T03:00:18;13.02;;;11.73;;
34924;SDS011;21130;51.728;8.748;2023-05-14T03:02:44;12.98;;;11.77;;
34924;SDS011;21130;51.728;8.748;2023-05-14T03:05:11;14.02;;;12.68;;
34924;SDS011;21130;51.728;8.748;2023-05-14T03:07:37;14.02;;;12.63;;
34924;SDS011;21130;51.728;8.748;2023-05-14T03:10:04;13.75;;;12.35;;
34924;SDS011;21130;51.728;8.748;2023-05-14T03:12:31;12.98;;;11.77;;
34924;SDS011;21130;51.728;8.748;2023-05-14T03:14:59;13.43;;;12.02;;
34924;SDS011;21130;51.728;8.748;2023-05-14T03:17:25;13.65;;;12.27;;
34924;SDS011;21130;51.728;8.748;2023-05-14T03:19:52;13.25;;;12.05;;
34924;SDS011;21130;51.728;8.748;2023-05-14T03:22:18;13.82;;;11.85;;
34924;SDS011;21130;51.728;8.748;2023-05-14T03:24:44;12.77;;;11.57;;
34924;SDS011;21130;51.728;8.748;2023-05-14T03:27:11;13.45;;;12.15;;
34924;SDS011;21130;51.728;8.748;2023-05-14T03:29:37;13.38;;;12.10;;
34924;SDS011;21130;51.728;8.748;2023-05-14T03:32:05;14.38;;;13.07;;
34924;SDS011;21130;51.728;8.748;2023-05-14T03:34:32;13.57;;;12.38;;
34924;SDS011;21130;51.728;8.748;2023-05-14T03:36:59;14.48;;;13.02;;
34924;SDS011;21130;51.728;8.748;2023-05-14T03:39:26;14.80;;;13.48;;
34924;SDS011;21130;51.728;8.748;2023-05-14T03:41:52;14.02;;;12.70;;
34924;SDS011;21130;51.728;8.748;2023-05-14T03:44:21;14.68;;;13.20;;
34924;SDS011;21130;51.728;8.748;2023-05-14T03:46:47;14.00;;;12.75;;
34924;SDS011;21130;51.728;8.748;2023-05-14T03:49:15;13.63;;;12.43;;
34924;SDS011;21130;51.728;8.748;2023-05-14T03:51:41;12.80;;;11.60;;
34924;SDS011;21130;51.728;8.748;2023-05-14T03:54:08;13.68;;;12.23;;
34924;SDS011;21130;51.728;8.748;2023-05-14T03:56:35;13.32;;;12.13;;
34924;SDS011;21130;51.728;8.748;2023-05-14T03:59:01;13.07;;;11.80;;
34924;SDS011;21130;51.728;8.748;2023-05-14T04:01:28;14.60;;;13.30;;
34924;SDS011;21130;51.728;8.748;2023-05-14T04:03:54;13.55;;;12.25;;
34924;SDS011;21130;51.728;8.748;2023-05-14T04:06:22;14.18;;;12.70;;
34924;SDS011;21130;51.728;8.748;2023-05-14T04:08:48;14.32;;;12.90;;
34924;SDS011;21130;51.728;8.748;2023-05-14T04:11:15;14.38;;;12.98;;
34924;SDS011;21130;51.728;8.748;2023-05-14T04:13:41;13.52;;;12.30;;
34924;SDS011;21130;51.728;8.748;2023-05-14T04:16:07;13.82;;;12.45;;
34924;SDS011;21130;51.728;8.748;2023-05-14T04:18:34;13.30;;;12.02;;
34924;SDS011;21130;51.728;8.748;2023-05-14T04:21:00;14.15;;;12.85;;
34924;SDS011;21130;51.728;8.748;2023-05-14T04:23:29;13.80;;;12.40;;
34924;SDS011;21130;51.728;8.748;2023-05-14T04:25:56;14.02;;;12.73;;
34924;SDS011;21130;51.728;8.748;2023-05-14T04:28:22;15.05;;;12.00;;
34924;SDS011;21130;51.728;8.748;2023-05-14T04:30:49;13.20;;;11.93;;
34924;SDS011;21130;51.728;8.748;2023-05-14T04:33:15;13.60;;;12.35;;
34924;SDS011;21130;51.728;8.748;2023-05-14T04:35:42;12.65;;;11.48;;
34924;SDS011;21130;51.728;8.748;2023-05-14T04:38:09;12.32;;;11.05;;
34924;SDS011;21130;51.728;8.748;2023-05-14T04:40:37;11.13;;;9.95;;
34924;SDS011;21130;51.728;8.748;2023-05-14T04:43:03;10.38;;;9.43;;
34924;SDS011;21130;51.728;8.748;2023-05-14T04:45:30;10.68;;;9.68;;
34924;SDS011;21130;51.728;8.748;2023-05-14T04:47:57;10.27;;;9.30;;
34924;SDS011;21130;51.728;8.748;2023-05-14T04:50:23;11.05;;;10.00;;
34924;SDS011;21130;51.728;8.748;2023-05-14T04:52:50;10.55;;;9.65;;
34924;SDS011;21130;51.728;8.748;2023-05-14T04:55:18;10.25;;;9.35;;
34924;SDS011;21130;51.728;8.748;2023-05-14T04:57:46;9.55;;;8.75;;
34924;SDS011;21130;51.728;8.748;2023-05-14T05:00:13;9.60;;;8.80;;
34924;SDS011;21130;51.728;8.748;2023-05-14T05:02:41;9.70;;;8.70;;
34924;SDS011;21130;51.728;8.748;2023-05-14T05:05:08;10.15;;;9.10;;
34924;SDS011;21130;51.728;8.748;2023-05-14T05:07:35;10.48;;;9.57;;
34924;SDS011;21130;51.728;8.748;2023-05-14T05:10:01;10.43;;;9.52;;
34924;SDS011;21130;51.728;8.748;2023-05-14T05:12:28;9.80;;;8.98;;
34924;SDS011;21130;51.728;8.748;2023-05-14T05:14:56;9.93;;;9.02;;
34924;SDS011;21130;51.728;8.748;2023-05-14T05:17:23;9.57;;;8.48;;
34924;SDS011;21130;51.728;8.748;2023-05-14T05:19:50;8.77;;;8.05;;
34924;SDS011;21130;51.728;8.748;2023-05-14T05:22:16;8.55;;;7.75;;
34924;SDS011;21130;51.728;8.748;2023-05-14T05:24:44;8.23;;;7.55;;
34924;SDS011;21130;51.728;8.748;2023-05-14T05:27:10;8.15;;;7.45;;
34924;SDS011;21130;51.728;8.748;2023-05-14T05:29:37;7.75;;;7.05;;
34924;SDS011;21130;51.728;8.748;2023-05-14T05:32:05;7.72;;;7.07;;
34924;SDS011;21130;51.728;8.748;2023-05-14T05:34:32;7.82;;;7.07;;
34924;SDS011;21130;51.728;8.748;2023-05-14T05:36:59;6.93;;;6.40;;
34924;SDS011;21130;51.728;8.748;2023-05-14T05:39:26;6.90;;;6.30;;
34924;SDS011;21130;51.728;8.748;2023-05-14T05:41:58;6.43;;;5.93;;
34924;SDS011;21130;51.728;8.748;2023-05-14T05:44:25;7.32;;;6.68;;
34924;SDS011;21130;51.728;8.748;2023-05-14T05:46:52;7.10;;;6.40;;
34924;SDS011;21130;51.728;8.748;2023-05-14T05:49:21;6.32;;;5.78;;
34924;SDS011;21130;51.728;8.748;2023-05-14T05:51:48;5.72;;;5.22;;
34924;SDS011;21130;51.728;8.748;2023-05-14T05:54:14;5.90;;;5.40;;
34924;SDS011;21130;51.728;8.748;2023-05-14T05:56:41;6.07;;;5.57;;
34924;SDS011;21130;51.728;8.748;2023-05-14T05:59:07;6.80;;;5.20;;
34924;SDS011;21130;51.728;8.748;2023-05-14T06:01:34;5.35;;;4.95;;
34924;SDS011;21130;51.728;8.748;2023-05-14T06:04:00;5.13;;;4.72;;
34924;SDS011;21130;51.728;8.748;2023-05-14T06:06:29;5.60;;;4.80;;
34924;SDS011;21130;51.728;8.748;2023-05-14T06:08:56;7.43;;;4.72;;
34924;SDS011;21130;51.728;8.748;2023-05-14T06:11:23;5.53;;;4.88;;
34924;SDS011;21130;51.728;8.748;2023-05-14T06:13:50;5.20;;;4.80;;
34924;SDS011;21130;51.728;8.748;2023-05-14T06:16:16;5.38;;;4.88;;
34924;SDS011;21130;51.728;8.748;2023-05-14T06:18:43;5.50;;;5.00;;
34924;SDS011;21130;51.728;8.748;2023-05-14T06:21:10;5.50;;;5.00;;
34924;SDS011;21130;51.728;8.748;2023-05-14T06:23:38;4.85;;;4.45;;
34924;SDS011;21130;51.728;8.748;2023-05-14T06:26:05;4.93;;;4.38;;
34924;SDS011;21130;51.728;8.748;2023-05-14T06:28:31;5.03;;;4.63;;
34924;SDS011;21130;51.728;8.748;2023-05-14T06:30:57;4.78;;;4.40;;
34924;SDS011;21130;51.728;8.748;2023-05-14T06:33:24;5.18;;;4.07;;
34924;SDS011;21130;51.728;8.748;2023-05-14T06:35:54;4.50;;;3.83;;
34924;SDS011;21130;51.728;8.748;2023-05-14T06:38:21;5.45;;;4.22;;
34924;SDS011;21130;51.728;8.748;2023-05-14T06:40:49;4.50;;;4.13;;
34924;SDS011;21130;51.728;8.748;2023-05-14T06:43:15;4.38;;;3.97;;
34924;SDS011;21130;51.728;8.748;2023-05-14T06:45:42;4.22;;;3.85;;
34924;SDS011;21130;51.728;8.748;2023-05-14T06:48:08;4.88;;;4.35;;
34924;SDS011;21130;51.728;8.748;2023-05-14T06:50:35;4.03;;;3.72;;
34924;SDS011;21130;51.728;8.748;2023-05-14T06:53:01;5.13;;;3.70;;
34924;SDS011;21130;51.728;8.748;2023-05-14T06:55:28;4.40;;;4.00;;
34924;SDS011;21130;51.728;8.748;2023-05-14T06:57:55;4.60;;;4.05;;
34924;SDS011;21130;51.728;8.748;2023-05-14T07:00:22;4.30;;;3.78;;
34924;SDS011;21130;51.728;8.748;2023-05-14T07:02:49;4.22;;;3.83;;
34924;SDS011;21130;51.728;8.748;2023-05-14T07:05:15;4.38;;;3.88;;
34924;SDS011;21130;51.728;8.748;2023-05-14T07:07:42;4.63;;;4.22;;
34924;SDS011;21130;51.728;8.748;2023-05-14T07:10:08;4.53;;;3.40;;
34924;SDS011;21130;51.728;8.748;2023-05-14T07:12:35;4.25;;;3.85;;
34924;SDS011;21130;51.728;8.748;2023-05-14T07:15:03;4.53;;;4.00;;
34924;SDS011;21130;51.728;8.748;2023-05-14T07:17:30;5.07;;;4.00;;
34924;SDS011;21130;51.728;8.748;2023-05-14T07:19:56;4.40;;;4.10;;
34924;SDS011;21130;51.728;8.748;2023-05-14T07:22:23;4.55;;;4.10;;
34924;SDS011;21130;51.728;8.748;2023-05-14T07:24:49;4.28;;;3.88;;
34924;SDS011;21130;51.728;8.748;2023-05-14T07:27:16;4.10;;;3.80;;
34924;SDS011;21130;51.728;8.748;2023-05-14T07:29:42;4.40;;;3.50;;
34924;SDS011;21130;51.728;8.748;2023-05-14T07:32:10;3.25;;;3.05;;
34924;SDS011;21130;51.728;8.748;2023-05-14T07:34:37;3.80;;;3.50;;
34924;SDS011;21130;51.728;8.748;2023-05-14T07:37:03;4.03;;;3.63;;
34924;SDS011;21130;51.728;8.748;2023-05-14T07:39:30;5.05;;;3.75;;
34924;SDS011;21130;51.728;8.748;2023-05-14T07:41:56;4.40;;;3.92;;
34924;SDS011;21130;51.728;8.748;2023-05-14T07:44:22;3.60;;;3.30;;
34924;SDS011;21130;51.728;8.748;2023-05-14T07:46:50;3.58;;;3.25;;
34924;SDS011;21130;51.728;8.748;2023-05-14T07:49:18;3.80;;;3.50;;
34924;SDS011;21130;51.728;8.748;2023-05-14T07:51:44;3.75;;;3.45;;
34924;SDS011;21130;51.728;8.748;2023-05-14T07:54:11;3.63;;;3.33;;
34924;SDS011;21130;51.728;8.748;2023-05-14T07:56:37;3.75;;;3.47;;
34924;SDS011;21130;51.728;8.748;2023-05-14T07:59:05;4.97;;;3.90;;
34924;SDS011;21130;51.728;8.748;2023-05-14T08:01:32;4.05;;;3.70;;
34924;SDS011;21130;51.728;8.748;2023-05-14T08:03:58;5.22;;;3.53;;
34924;SDS011;21130;51.728;8.748;2023-05-14T08:06:26;5.43;;;3.58;;
34924;SDS011;21130;51.728;8.748;2023-05-14T08:08:53;3.58;;;3.10;;
34924;SDS011;21130;51.728;8.748;2023-05-14T08:11:20;3.47;;;3.25;;
34924;SDS011;21130;51.728;8.748;2023-05-14T08:13:46;3.67;;;3.38;;
34924;SDS011;21130;51.728;8.748;2023-05-14T08:16:12;4.28;;;3.30;;
34924;SDS011;21130;51.728;8.748;2023-05-14T08:18:39;4.60;;;3.15;;
34924;SDS011;21130;51.728;8.748;2023-05-14T08:21:05;3.45;;;3.13;;
34924;SDS011;21130;51.728;8.748;2023-05-14T08:23:33;3.08;;;2.88;;
34924;SDS011;21130;51.728;8.748;2023-05-14T08:25:59;3.75;;;2.83;;
34924;SDS011;21130;51.728;8.748;2023-05-14T08:28:26;2.92;;;2.63;;
34924;SDS011;21130;51.728;8.748;2023-05-14T08:30:52;3.45;;;3.15;;
34924;SDS011;21130;51.728;8.748;2023-05-14T08:33:19;2.90;;;2.70;;
34924;SDS011;21130;51.728;8.748;2023-05-14T08:35:46;3.10;;;2.90;;
34924;SDS011;21130;51.728;8.748;2023-05-14T08:38:12;3.33;;;3.03;;
34924;SDS011;21130;51.728;8.748;2023-05-14T08:40:40;3.25;;;2.92;;
34924;SDS011;21130;51.728;8.748;2023-05-14T08:43:07;2.30;;;2.20;;
34924;SDS011;21130;51.728;8.748;2023-05-14T08:45:35;2.92;;;2.72;;
34924;SDS011;21130;51.728;8.748;2023-05-14T08:48:05;5.10;;;3.33;;
34924;SDS011;21130;51.728;8.748;2023-05-14T08:50:33;3.45;;;3.15;;
34924;SDS011;21130;51.728;8.748;2023-05-14T08:53:02;2.60;;;2.40;;
34924;SDS011;21130;51.728;8.748;2023-05-14T08:55:29;2.63;;;2.42;;
34924;SDS011;21130;51.728;8.748;2023-05-14T08:57:58;2.88;;;2.67;;
34924;SDS011;21130;51.728;8.748;2023-05-14T09:00:25;2.70;;;2.50;;
34924;SDS011;21130;51.728;8.748;2023-05-14T09:02:52;3.00;;;2.50;;
34924;SDS011;21130;51.728;8.748;2023-05-14T09:05:20;2.45;;;2.30;;
34924;SDS011;21130;51.728;8.748;2023-05-14T09:07:47;2.60;;;2.40;;
34924;SDS011;21130;51.728;8.748;2023-05-14T09:10:13;2.13;;;2.03;;
34924;SDS011;21130;51.728;8.748;2023-05-14T09:12:40;3.03;;;2.40;;
34924;SDS011;21130;51.728;8.748;2023-05-14T09:15:08;2.60;;;2.40;;
34924;SDS011;21130;51.728;8.748;2023-05-14T09:17:35;3.20;;;2.10;;
34924;SDS011;21130;51.728;8.748;2023-05-14T09:20:01;2.40;;;1.83;;
34924;SDS011;21130;51.728;8.748;2023-05-14T09:22:28;2.47;;;2.08;;
34924;SDS011;21130;51.728;8.748;2023-05-14T09:25:00;2.00;;;1.90;;
34924;SDS011;21130;51.728;8.748;2023-05-14T09:27:28;2.75;;;2.00;;
34924;SDS011;21130;51.728;8.748;2023-05-14T09:30:00;2.30;;;2.15;;
34924;SDS011;21130;51.728;8.748;2023-05-14T09:32:35;2.53;;;1.88;;
34924;SDS011;21130;51.728;8.748;2023-05-14T09:35:12;2.00;;;1.80;;
34924;SDS011;21130;51.728;8.748;2023-05-14T09:37:41;1.85;;;1.58;;
34924;SDS011;21130;51.728;8.748;2023-05-14T09:40:09;2.75;;;1.60;;
34924;SDS011;21130;51.728;8.748;2023-05-14T09:42:36;1.60;;;1.50;;
34924;SDS011;21130;51.728;8.748;2023-05-14T09:45:03;1.60;;;1.40;;
34924;SDS011;21130;51.728;8.748;2023-05-14T09:47:30;1.60;;;1.50;;
34924;SDS011;21130;51.728;8.748;2023-05-14T09:49:58;3.17;;;1.58;;
34924;SDS011;21130;51.728;8.748;2023-05-14T09:52:24;2.60;;;2.40;;
34924;SDS011;21130;51.728;8.748;2023-05-14T09:54:51;2.30;;;1.83;;
34924;SDS011;21130;51.728;8.748;2023-05-14T09:57:18;2.35;;;1.75;;
34924;SDS011;21130;51.728;8.748;2023-05-14T09:59:44;1.75;;;1.65;;
34924;SDS011;21130;51.728;8.748;2023-05-14T10:02:12;1.80;;;1.70;;
34924;SDS011;21130;51.728;8.748;2023-05-14T10:04:45;1.70;;;1.60;;
34924;SDS011;21130;51.728;8.748;2023-05-14T10:07:13;2.55;;;1.85;;
34924;SDS011;21130;51.728;8.748;2023-05-14T10:09:41;1.95;;;1.85;;
34924;SDS011;21130;51.728;8.748;2023-05-14T10:12:09;2.03;;;1.92;;
34924;SDS011;21130;51.728;8.748;2023-05-14T10:14:38;4.40;;;3.42;;
34924;SDS011;21130;51.728;8.748;2023-05-14T10:17:06;2.22;;;1.52;;
34924;SDS011;21130;51.728;8.748;2023-05-14T10:19:41;2.17;;;1.60;;
34924;SDS011;21130;51.728;8.748;2023-05-14T10:22:12;1.70;;;1.60;;
34924;SDS011;21130;51.728;8.748;2023-05-14T10:24:42;2.47;;;1.67;;
34924;SDS011;21130;51.728;8.748;2023-05-14T10:27:09;1.77;;;1.67;;
34924;SDS011;21130;51.728;8.748;2023-05-14T10:29:36;1.60;;;1.50;;
34924;SDS011;21130;51.728;8.748;2023-05-14T10:32:04;1.80;;;1.70;;
34924;SDS011;21130;51.728;8.748;2023-05-14T10:34:32;2.08;;;1.80;;
34924;SDS011;21130;51.728;8.748;2023-05-14T10:37:03;1.83;;;1.70;;
34924;SDS011;21130;51.728;8.748;2023-05-14T10:39:45;1.67;;;1.58;;
34924;SDS011;21130;51.728;8.748;2023-05-14T10:42:14;1.55;;;1.45;;
34924;SDS011;21130;51.728;8.748;2023-05-14T10:47:48;3.60;;;3.30;;
34924;SDS011;21130;51.728;8.748;2023-05-14T10:50:14;4.80;;;2.90;;
34924;SDS011;21130;51.728;8.748;2023-05-14T10:52:41;1.75;;;1.65;;
34924;SDS011;21130;51.728;8.748;2023-05-14T10:55:11;2.03;;;1.52;;
34924;SDS011;21130;51.728;8.748;2023-05-14T10:57:39;1.58;;;1.48;;
34924;SDS011;21130;51.728;8.748;2023-05-14T11:00:08;1.63;;;1.52;;
34924;SDS011;21130;51.728;8.748;2023-05-14T11:02:37;2.17;;;1.60;;
34924;SDS011;21130;51.728;8.748;2023-05-14T11:05:05;2.55;;;1.40;;
34924;SDS011;21130;51.728;8.748;2023-05-14T11:07:33;1.83;;;1.65;;
34924;SDS011;21130;51.728;8.748;2023-05-14T11:10:02;2.25;;;1.48;;
34924;SDS011;21130;51.728;8.748;2023-05-14T11:12:32;1.30;;;1.20;;
34924;SDS011;21130;51.728;8.748;2023-05-14T11:15:00;11.85;;;10.30;;
34924;SDS011;21130;51.728;8.748;2023-05-14T11:17:28;1.45;;;1.35;;
34924;SDS011;21130;51.728;8.748;2023-05-14T11:19:56;2.05;;;1.80;;
34924;SDS011;21130;51.728;8.748;2023-05-14T11:22:23;2.03;;;1.23;;
34924;SDS011;21130;51.728;8.748;2023-05-14T11:24:50;1.50;;;1.40;;
34924;SDS011;21130;51.728;8.748;2023-05-14T11:27:16;1.83;;;1.70;;
34924;SDS011;21130;51.728;8.748;2023-05-14T11:29:45;11.98;;;10.73;;
34924;SDS011;21130;51.728;8.748;2023-05-14T11:32:13;8.40;;;7.63;;
34924;SDS011;21130;51.728;8.748;2023-05-14T11:34:41;1.42;;;1.17;;
34924;SDS011;21130;51.728;8.748;2023-05-14T11:37:10;1.10;;;1.10;;
34924;SDS011;21130;51.728;8.748;2023-05-14T11:39:37;2.83;;;1.40;;
34924;SDS011;21130;51.728;8.748;2023-05-14T11:42:08;1.52;;;1.23;;
34924;SDS011;21130;51.728;8.748;2023-05-14T11:44:38;2.35;;;1.23;;
34924;SDS011;21130;51.728;8.748;2023-05-14T11:47:07;2.13;;;1.30;;
34924;SDS011;21130;51.728;8.748;2023-05-14T11:49:33;4.50;;;4.10;;
34924;SDS011;21130;51.728;8.748;2023-05-14T11:52:03;1.42;;;1.33;;
34924;SDS011;21130;51.728;8.748;2023-05-14T11:54:31;1.63;;;1.33;;
34924;SDS011;21130;51.728;8.748;2023-05-14T11:56:59;1.27;;;1.17;;
34924;SDS011;21130;51.728;8.748;2023-05-14T11:59:33;1.40;;;1.30;;
34924;SDS011;21130;51.728;8.748;2023-05-14T12:02:00;2.10;;;1.85;;
34924;SDS011;21130;51.728;8.748;2023-05-14T12:04:29;1.90;;;1.80;;
34924;SDS011;21130;51.728;8.748;2023-05-14T12:06:57;1.63;;;1.50;;
34924;SDS011;21130;51.728;8.748;2023-05-14T12:09:24;1.77;;;1.67;;
34924;SDS011;21130;51.728;8.748;2023-05-14T12:11:51;3.03;;;1.50;;
34924;SDS011;21130;51.728;8.748;2023-05-14T12:14:18;1.55;;;1.45;;
34924;SDS011;21130;51.728;8.748;2023-05-14T12:16:46;2.00;;;1.70;;
34924;SDS011;21130;51.728;8.748;2023-05-14T12:19:14;2.78;;;1.30;;
34924;SDS011;21130;51.728;8.748;2023-05-14T12:21:43;2.38;;;1.30;;
34924;SDS011;21130;51.728;8.748;2023-05-14T12:24:11;1.30;;;1.20;;
34924;SDS011;21130;51.728;8.748;2023-05-14T12:26:38;1.38;;;1.27;;
34924;SDS011;21130;51.728;8.748;2023-05-14T12:29:05;1.52;;;1.42;;
34924;SDS011;21130;51.728;8.748;2023-05-14T12:31:32;1.42;;;1.33;;
34924;SDS011;21130;51.728;8.748;2023-05-14T12:34:00;5.38;;;1.50;;
34924;SDS011;21130;51.728;8.748;2023-05-14T12:36:27;2.03;;;1.48;;
34924;SDS011;21130;51.728;8.748;2023-05-14T12:38:59;1.30;;;1.20;;
34924;SDS011;21130;51.728;8.748;2023-05-14T12:41:27;1.73;;;1.40;;
34924;SDS011;21130;51.728;8.748;2023-05-14T12:43:54;1.58;;;1.48;;
34924;SDS011;21130;51.728;8.748;2023-05-14T12:46:20;1.50;;;1.20;;
34924;SDS011;21130;51.728;8.748;2023-05-14T12:48:47;2.20;;;1.60;;
34924;SDS011;21130;51.728;8.748;2023-05-14T12:51:14;1.38;;;1.15;;
34924;SDS011;21130;51.728;8.748;2023-05-14T12:53:40;1.70;;;1.60;;
34924;SDS011;21130;51.728;8.748;2023-05-14T12:56:08;2.08;;;1.73;;
34924;SDS011;21130;51.728;8.748;2023-05-14T12:58:35;1.90;;;1.65;;
34924;SDS011;21130;51.728;8.748;2023-05-14T13:01:01;1.90;;;1.42;;
34924;SDS011;21130;51.728;8.748;2023-05-14T13:03:28;1.70;;;1.60;;
34924;SDS011;21130;51.728;8.748;2023-05-14T13:05:54;1.75;;;1.65;;
34924;SDS011;21130;51.728;8.748;2023-05-14T13:08:21;2.00;;;1.90;;
34924;SDS011;21130;51.728;8.748;2023-05-14T13:10:49;1.67;;;1.58;;
34924;SDS011;21130;51.728;8.748;2023-05-14T13:13:17;1.58;;;1.48;;
34924;SDS011;21130;51.728;8.748;2023-05-14T13:15:43;1.60;;;1.30;;
34924;SDS011;21130;51.728;8.748;2023-05-14T13:18:10;1.50;;;1.40;;
34924;SDS011;21130;51.728;8.748;2023-05-14T13:20:37;1.17;;;1.17;;
34924;SDS011;21130;51.728;8.748;2023-05-14T13:23:03;2.15;;;1.52;;
34924;SDS011;21130;51.728;8.748;2023-05-14T13:25:30;1.55;;;1.45;;
34924;SDS011;21130;51.728;8.748;2023-05-14T13:27:56;2.30;;;2.10;;
34924;SDS011;21130;51.728;8.748;2023-05-14T13:30:24;1.60;;;1.50;;
34924;SDS011;21130;51.728;8.748;2023-05-14T13:32:51;3.58;;;1.70;;
34924;SDS011;21130;51.728;8.748;2023-05-14T13:35:17;1.92;;;1.83;;
34924;SDS011;21130;51.728;8.748;2023-05-14T13:37:44;2.00;;;1.90;;
34924;SDS011;21130;51.728;8.748;2023-05-14T13:40:11;1.60;;;1.50;;
34924;SDS011;21130;51.728;8.748;2023-05-14T13:42:37;1.63;;;1.52;;
34924;SDS011;21130;51.728;8.748;2023-05-14T13:45:06;2.40;;;2.20;;
34924;SDS011;21130;51.728;8.748;2023-05-14T13:47:34;1.52;;;1.42;;
34924;SDS011;21130;51.728;8.748;2023-05-14T13:50:00;1.80;;;1.70;;
34924;SDS011;21130;51.728;8.748;2023-05-14T13:52:27;1.65;;;1.55;;
34924;SDS011;21130;51.728;8.748;2023-05-14T13:54:54;1.80;;;1.70;;
34924;SDS011;21130;51.728;8.748;2023-05-14T13:57:20;2.17;;;1.98;;
34924;SDS011;21130;51.728;8.748;2023-05-14T13:59:47;3.88;;;2.22;;
34924;SDS011;21130;51.728;8.748;2023-05-14T14:02:13;3.47;;;2.60;;
34924;SDS011;21130;51.728;8.748;2023-05-14T14:04:41;3.28;;;2.30;;
34924;SDS011;21130;51.728;8.748;2023-05-14T14:07:08;2.03;;;1.83;;
34924;SDS011;21130;51.728;8.748;2023-05-14T14:09:53;2.38;;;2.10;;
34924;SDS011;21130;51.728;8.748;2023-05-14T14:12:20;2.35;;;1.80;;
34924;SDS011;21130;51.728;8.748;2023-05-14T14:14:46;2.85;;;2.17;;
34924;SDS011;21130;51.728;8.748;2023-05-14T14:17:18;5.97;;;3.65;;
34924;SDS011;21130;51.728;8.748;2023-05-14T14:19:46;5.28;;;3.85;;
34924;SDS011;21130;51.728;8.748;2023-05-14T14:22:12;11.70;;;6.07;;
34924;SDS011;21130;51.728;8.748;2023-05-14T14:24:41;10.52;;;5.72;;
34924;SDS011;21130;51.728;8.748;2023-05-14T14:27:07;9.70;;;5.82;;
34924;SDS011;21130;51.728;8.748;2023-05-14T14:29:34;8.43;;;5.07;;
34924;SDS011;21130;51.728;8.748;2023-05-14T14:32:00;5.03;;;4.10;;
34924;SDS011;21130;51.728;8.748;2023-05-14T14:34:27;4.93;;;4.40;;
34924;SDS011;21130;51.728;8.748;2023-05-14T14:36:55;8.00;;;4.60;;
34924;SDS011;21130;51.728;8.748;2023-05-14T14:39:21;7.85;;;5.30;;
34924;SDS011;21130;51.728;8.748;2023-05-14T14:41:49;6.05;;;5.45;;
34924;SDS011;21130;51.728;8.748;2023-05-14T14:44:15;6.07;;;5.00;;
34924;SDS011;21130;51.728;8.748;2023-05-14T14:46:42;4.97;;;4.40;;